sensor_id;sensor_type;location;lat;lon;timestamp;P1;durP1;ratioP1;P2;durP2;ratioP2
66567;SDS011;53422;49.296;6.900;2023-04-06T00:01:21;11.60;;;4.85;;
66567;SDS011;53422;49.296;6.900;2023-04-06T00:03:47;7.93;;;4.05;;
66567;SDS011;53422;49.296;6.900;2023-04-06T00:06:12;11.98;;;4.82;;
66567;SDS011;53422;49.296;6.900;2023-04-06T00:08:38;11.48;;;4.55;;
66567;SDS011;53422;49.296;6.900;2023-04-06T00:11:04;11.35;;;4.57;;
66567;SDS011;53422;49.296;6.900;2023-04-06T00:13:30;9.73;;;4.53;;
66567;SDS011;53422;49.296;6.900;2023-04-06T00:15:56;9.38;;;4.47;;
66567;SDS011;53422;49.296;6.900;2023-04-06T00:18:22;10.60;;;4.63;;
66567;SDS011;53422;49.296;6.900;2023-04-06T00:20:48;8.90;;;4.30;;
66567;SDS011;53422;49.296;6.900;2023-04-06T00:23:13;11.60;;;4.88;;
66567;SDS011;53422;49.296;6.900;2023-04-06T00:25:39;9.75;;;4.47;;
66567;SDS011;53422;49.296;6.900;2023-04-06T00:28:05;10.88;;;4.82;;
66567;SDS011;53422;49.296;6.900;2023-04-06T00:30:30;14.60;;;5.00;;
66567;SDS011;53422;49.296;6.900;2023-04-06T00:32:56;18.77;;;7.40;;
66567;SDS011;53422;49.296;6.900;2023-04-06T00:35:22;20.10;;;7.60;;
66567;SDS011;53422;49.296;6.900;2023-04-06T00:37:47;11.93;;;5.50;;
66567;SDS011;53422;49.296;6.900;2023-04-06T00:40:13;9.75;;;5.20;;
66567;SDS011;53422;49.296;6.900;2023-04-06T00:42:40;12.07;;;5.47;;
66567;SDS011;53422;49.296;6.900;2023-04-06T00:45:06;11.77;;;4.70;;
66567;SDS011;53422;49.296;6.900;2023-04-06T00:47:32;9.02;;;4.38;;
66567;SDS011;53422;49.296;6.900;2023-04-06T00:49:58;10.23;;;4.43;;
66567;SDS011;53422;49.296;6.900;2023-04-06T00:52:24;14.02;;;5.05;;
66567;SDS011;53422;49.296;6.900;2023-04-06T00:54:50;12.52;;;4.78;;
66567;SDS011;53422;49.296;6.900;2023-04-06T00:57:16;9.65;;;5.10;;
66567;SDS011;53422;49.296;6.900;2023-04-06T00:59:43;10.65;;;5.35;;
66567;SDS011;53422;49.296;6.900;2023-04-06T01:02:09;12.32;;;4.30;;
66567;SDS011;53422;49.296;6.900;2023-04-06T01:04:35;11.65;;;4.32;;
66567;SDS011;53422;49.296;6.900;2023-04-06T01:07:01;10.60;;;4.28;;
66567;SDS011;53422;49.296;6.900;2023-04-06T01:09:27;9.48;;;4.10;;
66567;SDS011;53422;49.296;6.900;2023-04-06T01:11:54;12.90;;;4.75;;
66567;SDS011;53422;49.296;6.900;2023-04-06T01:14:21;10.73;;;4.40;;
66567;SDS011;53422;49.296;6.900;2023-04-06T01:16:48;9.43;;;3.92;;
66567;SDS011;53422;49.296;6.900;2023-04-06T01:19:14;10.70;;;4.80;;
66567;SDS011;53422;49.296;6.900;2023-04-06T01:21:40;8.48;;;4.13;;
66567;SDS011;53422;49.296;6.900;2023-04-06T01:24:06;11.38;;;4.47;;
66567;SDS011;53422;49.296;6.900;2023-04-06T01:26:33;11.85;;;4.85;;
66567;SDS011;53422;49.296;6.900;2023-04-06T01:29:00;12.00;;;5.18;;
66567;SDS011;53422;49.296;6.900;2023-04-06T01:31:27;12.82;;;5.35;;
66567;SDS011;53422;49.296;6.900;2023-04-06T01:33:53;12.68;;;4.47;;
66567;SDS011;53422;49.296;6.900;2023-04-06T01:36:18;10.02;;;4.20;;
66567;SDS011;53422;49.296;6.900;2023-04-06T01:38:45;10.52;;;3.92;;
66567;SDS011;53422;49.296;6.900;2023-04-06T01:41:10;8.90;;;4.30;;
66567;SDS011;53422;49.296;6.900;2023-04-06T01:43:36;8.70;;;3.80;;
66567;SDS011;53422;49.296;6.900;2023-04-06T01:46:02;12.80;;;4.75;;
66567;SDS011;53422;49.296;6.900;2023-04-06T01:48:28;11.52;;;4.38;;
66567;SDS011;53422;49.296;6.900;2023-04-06T01:50:54;11.60;;;4.53;;
66567;SDS011;53422;49.296;6.900;2023-04-06T01:53:20;11.23;;;4.55;;
66567;SDS011;53422;49.296;6.900;2023-04-06T01:55:46;10.77;;;4.55;;
66567;SDS011;53422;49.296;6.900;2023-04-06T01:58:12;9.73;;;4.05;;
66567;SDS011;53422;49.296;6.900;2023-04-06T02:00:38;8.25;;;4.03;;
66567;SDS011;53422;49.296;6.900;2023-04-06T02:03:05;9.15;;;4.45;;
66567;SDS011;53422;49.296;6.900;2023-04-06T02:05:32;11.98;;;4.45;;
66567;SDS011;53422;49.296;6.900;2023-04-06T02:08:03;10.98;;;4.38;;
66567;SDS011;53422;49.296;6.900;2023-04-06T02:10:30;9.43;;;3.67;;
66567;SDS011;53422;49.296;6.900;2023-04-06T02:12:56;7.75;;;3.92;;
66567;SDS011;53422;49.296;6.900;2023-04-06T02:15:21;9.38;;;3.88;;
66567;SDS011;53422;49.296;6.900;2023-04-06T02:17:47;10.60;;;4.03;;
66567;SDS011;53422;49.296;6.900;2023-04-06T02:20:13;7.80;;;3.95;;
66567;SDS011;53422;49.296;6.900;2023-04-06T02:22:38;7.68;;;3.63;;
66567;SDS011;53422;49.296;6.900;2023-04-06T02:25:05;11.95;;;4.43;;
66567;SDS011;53422;49.296;6.900;2023-04-06T02:27:31;10.65;;;4.43;;
66567;SDS011;53422;49.296;6.900;2023-04-06T02:29:57;9.57;;;4.15;;
66567;SDS011;53422;49.296;6.900;2023-04-06T02:32:22;11.88;;;3.90;;
66567;SDS011;53422;49.296;6.900;2023-04-06T02:34:48;7.70;;;4.22;;
66567;SDS011;53422;49.296;6.900;2023-04-06T02:37:14;10.95;;;3.60;;
66567;SDS011;53422;49.296;6.900;2023-04-06T02:39:40;9.52;;;4.65;;
66567;SDS011;53422;49.296;6.900;2023-04-06T02:42:06;9.55;;;4.03;;
66567;SDS011;53422;49.296;6.900;2023-04-06T02:44:33;10.02;;;3.40;;
66567;SDS011;53422;49.296;6.900;2023-04-06T02:46:59;9.43;;;4.22;;
66567;SDS011;53422;49.296;6.900;2023-04-06T02:49:25;8.40;;;3.55;;
66567;SDS011;53422;49.296;6.900;2023-04-06T02:51:51;8.95;;;3.85;;
66567;SDS011;53422;49.296;6.900;2023-04-06T02:54:16;10.65;;;4.22;;
66567;SDS011;53422;49.296;6.900;2023-04-06T02:56:42;10.88;;;3.92;;
66567;SDS011;53422;49.296;6.900;2023-04-06T02:59:08;9.07;;;3.83;;
66567;SDS011;53422;49.296;6.900;2023-04-06T03:01:35;8.70;;;4.82;;
66567;SDS011;53422;49.296;6.900;2023-04-06T03:04:01;8.73;;;4.45;;
66567;SDS011;53422;49.296;6.900;2023-04-06T03:06:27;10.20;;;4.55;;
66567;SDS011;53422;49.296;6.900;2023-04-06T03:08:52;10.40;;;3.88;;
66567;SDS011;53422;49.296;6.900;2023-04-06T03:11:18;9.70;;;3.65;;
66567;SDS011;53422;49.296;6.900;2023-04-06T03:13:44;12.23;;;4.18;;
66567;SDS011;53422;49.296;6.900;2023-04-06T03:16:10;10.05;;;4.38;;
66567;SDS011;53422;49.296;6.900;2023-04-06T03:18:36;12.25;;;4.85;;
66567;SDS011;53422;49.296;6.900;2023-04-06T03:21:01;12.63;;;4.38;;
66567;SDS011;53422;49.296;6.900;2023-04-06T03:23:27;11.13;;;4.65;;
66567;SDS011;53422;49.296;6.900;2023-04-06T03:25:53;10.55;;;4.10;;
66567;SDS011;53422;49.296;6.900;2023-04-06T03:28:18;10.27;;;4.47;;
66567;SDS011;53422;49.296;6.900;2023-04-06T03:30:44;9.15;;;4.47;;
66567;SDS011;53422;49.296;6.900;2023-04-06T03:33:10;11.27;;;4.35;;
66567;SDS011;53422;49.296;6.900;2023-04-06T03:35:36;11.13;;;4.45;;
66567;SDS011;53422;49.296;6.900;2023-04-06T03:38:02;12.93;;;4.15;;
66567;SDS011;53422;49.296;6.900;2023-04-06T03:40:29;10.30;;;4.72;;
66567;SDS011;53422;49.296;6.900;2023-04-06T03:42:55;9.48;;;4.03;;
66567;SDS011;53422;49.296;6.900;2023-04-06T03:45:21;11.05;;;4.88;;
66567;SDS011;53422;49.296;6.900;2023-04-06T03:47:46;9.93;;;4.13;;
66567;SDS011;53422;49.296;6.900;2023-04-06T03:50:12;9.65;;;4.47;;
66567;SDS011;53422;49.296;6.900;2023-04-06T03:52:38;9.27;;;4.55;;
66567;SDS011;53422;49.296;6.900;2023-04-06T03:55:04;9.45;;;4.32;;
66567;SDS011;53422;49.296;6.900;2023-04-06T03:57:30;9.40;;;4.15;;
66567;SDS011;53422;49.296;6.900;2023-04-06T03:59:55;9.65;;;3.92;;
66567;SDS011;53422;49.296;6.900;2023-04-06T04:02:21;13.18;;;4.47;;
66567;SDS011;53422;49.296;6.900;2023-04-06T04:04:47;9.90;;;4.40;;
66567;SDS011;53422;49.296;6.900;2023-04-06T04:07:12;11.13;;;4.13;;
66567;SDS011;53422;49.296;6.900;2023-04-06T04:09:38;9.18;;;4.18;;
66567;SDS011;53422;49.296;6.900;2023-04-06T04:12:04;9.80;;;4.38;;
66567;SDS011;53422;49.296;6.900;2023-04-06T04:14:30;10.68;;;4.90;;
66567;SDS011;53422;49.296;6.900;2023-04-06T04:16:55;8.93;;;3.55;;
66567;SDS011;53422;49.296;6.900;2023-04-06T04:19:21;7.82;;;3.55;;
66567;SDS011;53422;49.296;6.900;2023-04-06T04:21:47;8.18;;;4.20;;
66567;SDS011;53422;49.296;6.900;2023-04-06T04:24:13;10.85;;;3.72;;
66567;SDS011;53422;49.296;6.900;2023-04-06T04:26:39;9.70;;;4.22;;
66567;SDS011;53422;49.296;6.900;2023-04-06T04:29:05;9.38;;;3.45;;
66567;SDS011;53422;49.296;6.900;2023-04-06T04:31:31;8.93;;;3.92;;
66567;SDS011;53422;49.296;6.900;2023-04-06T04:33:57;6.82;;;3.95;;
66567;SDS011;53422;49.296;6.900;2023-04-06T04:36:24;9.98;;;4.25;;
66567;SDS011;53422;49.296;6.900;2023-04-06T04:38:51;8.50;;;3.70;;
66567;SDS011;53422;49.296;6.900;2023-04-06T04:41:17;9.43;;;3.80;;
66567;SDS011;53422;49.296;6.900;2023-04-06T04:43:43;9.35;;;4.60;;
66567;SDS011;53422;49.296;6.900;2023-04-06T04:46:09;12.27;;;4.25;;
66567;SDS011;53422;49.296;6.900;2023-04-06T04:48:35;14.15;;;4.70;;
66567;SDS011;53422;49.296;6.900;2023-04-06T04:51:01;11.27;;;4.57;;
66567;SDS011;53422;49.296;6.900;2023-04-06T04:53:27;9.43;;;4.03;;
66567;SDS011;53422;49.296;6.900;2023-04-06T04:55:53;9.52;;;3.15;;
66567;SDS011;53422;49.296;6.900;2023-04-06T04:58:18;9.80;;;4.10;;
66567;SDS011;53422;49.296;6.900;2023-04-06T05:00:45;9.23;;;3.92;;
66567;SDS011;53422;49.296;6.900;2023-04-06T05:03:24;9.50;;;3.75;;
66567;SDS011;53422;49.296;6.900;2023-04-06T05:05:51;8.00;;;3.58;;
66567;SDS011;53422;49.296;6.900;2023-04-06T05:08:17;9.82;;;4.32;;
66567;SDS011;53422;49.296;6.900;2023-04-06T05:10:43;8.20;;;3.72;;
66567;SDS011;53422;49.296;6.900;2023-04-06T05:13:10;10.43;;;4.30;;
66567;SDS011;53422;49.296;6.900;2023-04-06T05:15:35;8.10;;;4.03;;
66567;SDS011;53422;49.296;6.900;2023-04-06T05:18:06;9.80;;;4.07;;
66567;SDS011;53422;49.296;6.900;2023-04-06T05:20:33;9.68;;;4.53;;
66567;SDS011;53422;49.296;6.900;2023-04-06T05:22:59;8.50;;;4.05;;
66567;SDS011;53422;49.296;6.900;2023-04-06T05:25:25;9.48;;;4.50;;
66567;SDS011;53422;49.296;6.900;2023-04-06T05:27:51;10.32;;;4.25;;
66567;SDS011;53422;49.296;6.900;2023-04-06T05:30:17;9.15;;;4.13;;
66567;SDS011;53422;49.296;6.900;2023-04-06T05:32:43;10.55;;;4.95;;
66567;SDS011;53422;49.296;6.900;2023-04-06T05:35:09;10.15;;;4.53;;
66567;SDS011;53422;49.296;6.900;2023-04-06T05:37:37;8.65;;;4.07;;
66567;SDS011;53422;49.296;6.900;2023-04-06T05:40:03;12.57;;;4.47;;
66567;SDS011;53422;49.296;6.900;2023-04-06T05:42:36;10.57;;;4.82;;
66567;SDS011;53422;49.296;6.900;2023-04-06T05:45:03;11.75;;;4.10;;
66567;SDS011;53422;49.296;6.900;2023-04-06T05:47:32;12.57;;;4.95;;
66567;SDS011;53422;49.296;6.900;2023-04-06T05:49:58;11.43;;;4.72;;
66567;SDS011;53422;49.296;6.900;2023-04-06T05:52:23;10.07;;;4.55;;
66567;SDS011;53422;49.296;6.900;2023-04-06T05:54:49;9.07;;;4.72;;
66567;SDS011;53422;49.296;6.900;2023-04-06T05:57:15;12.82;;;5.00;;
66567;SDS011;53422;49.296;6.900;2023-04-06T05:59:43;12.52;;;5.00;;
66567;SDS011;53422;49.296;6.900;2023-04-06T06:02:10;11.18;;;4.97;;
66567;SDS011;53422;49.296;6.900;2023-04-06T06:04:36;11.85;;;5.35;;
66567;SDS011;53422;49.296;6.900;2023-04-06T06:07:02;14.70;;;5.32;;
66567;SDS011;53422;49.296;6.900;2023-04-06T06:09:28;11.40;;;5.35;;
66567;SDS011;53422;49.296;6.900;2023-04-06T06:11:54;14.35;;;4.97;;
66567;SDS011;53422;49.296;6.900;2023-04-06T06:14:20;11.00;;;4.75;;
66567;SDS011;53422;49.296;6.900;2023-04-06T06:16:46;9.63;;;4.65;;
66567;SDS011;53422;49.296;6.900;2023-04-06T06:19:13;14.40;;;5.60;;
66567;SDS011;53422;49.296;6.900;2023-04-06T06:21:38;9.82;;;5.35;;
66567;SDS011;53422;49.296;6.900;2023-04-06T06:24:04;11.32;;;5.55;;
66567;SDS011;53422;49.296;6.900;2023-04-06T06:26:30;11.05;;;4.95;;
66567;SDS011;53422;49.296;6.900;2023-04-06T06:28:56;12.27;;;5.05;;
66567;SDS011;53422;49.296;6.900;2023-04-06T06:31:22;13.48;;;5.22;;
66567;SDS011;53422;49.296;6.900;2023-04-06T06:33:48;14.20;;;5.78;;
66567;SDS011;53422;49.296;6.900;2023-04-06T06:36:17;17.30;;;8.13;;
66567;SDS011;53422;49.296;6.900;2023-04-06T06:38:43;16.60;;;6.85;;
66567;SDS011;53422;49.296;6.900;2023-04-06T06:41:09;13.57;;;6.32;;
66567;SDS011;53422;49.296;6.900;2023-04-06T06:43:35;10.88;;;5.38;;
66567;SDS011;53422;49.296;6.900;2023-04-06T06:46:01;11.13;;;5.13;;
66567;SDS011;53422;49.296;6.900;2023-04-06T06:48:27;13.23;;;5.55;;
66567;SDS011;53422;49.296;6.900;2023-04-06T06:50:52;12.60;;;5.22;;
66567;SDS011;53422;49.296;6.900;2023-04-06T06:53:18;15.38;;;6.13;;
66567;SDS011;53422;49.296;6.900;2023-04-06T06:55:45;13.10;;;6.20;;
66567;SDS011;53422;49.296;6.900;2023-04-06T06:58:10;13.52;;;5.72;;
66567;SDS011;53422;49.296;6.900;2023-04-06T07:00:36;13.43;;;6.25;;
66567;SDS011;53422;49.296;6.900;2023-04-06T07:03:02;13.93;;;6.00;;
66567;SDS011;53422;49.296;6.900;2023-04-06T07:05:28;18.42;;;6.72;;
66567;SDS011;53422;49.296;6.900;2023-04-06T07:07:54;12.68;;;6.03;;
66567;SDS011;53422;49.296;6.900;2023-04-06T07:10:20;12.63;;;5.70;;
66567;SDS011;53422;49.296;6.900;2023-04-06T07:12:46;13.48;;;6.72;;
66567;SDS011;53422;49.296;6.900;2023-04-06T07:15:11;13.20;;;5.60;;
66567;SDS011;53422;49.296;6.900;2023-04-06T07:17:37;13.75;;;5.45;;
66567;SDS011;53422;49.296;6.900;2023-04-06T07:20:03;12.88;;;5.55;;
66567;SDS011;53422;49.296;6.900;2023-04-06T07:22:29;14.10;;;5.72;;
66567;SDS011;53422;49.296;6.900;2023-04-06T07:24:55;10.38;;;5.25;;
66567;SDS011;53422;49.296;6.900;2023-04-06T07:27:21;9.55;;;4.40;;
66567;SDS011;53422;49.296;6.900;2023-04-06T07:29:47;11.00;;;3.70;;
66567;SDS011;53422;49.296;6.900;2023-04-06T07:32:12;11.38;;;4.38;;
66567;SDS011;53422;49.296;6.900;2023-04-06T07:34:38;14.25;;;5.75;;
66567;SDS011;53422;49.296;6.900;2023-04-06T07:37:04;11.48;;;5.38;;
66567;SDS011;53422;49.296;6.900;2023-04-06T07:39:30;12.60;;;4.72;;
66567;SDS011;53422;49.296;6.900;2023-04-06T07:41:56;11.80;;;4.13;;
66567;SDS011;53422;49.296;6.900;2023-04-06T07:44:21;9.20;;;4.25;;
66567;SDS011;53422;49.296;6.900;2023-04-06T07:46:47;11.15;;;4.47;;
66567;SDS011;53422;49.296;6.900;2023-04-06T07:49:13;9.82;;;4.18;;
66567;SDS011;53422;49.296;6.900;2023-04-06T07:51:39;8.10;;;3.25;;
66567;SDS011;53422;49.296;6.900;2023-04-06T07:54:05;7.10;;;3.38;;
66567;SDS011;53422;49.296;6.900;2023-04-06T07:56:31;10.25;;;3.35;;
66567;SDS011;53422;49.296;6.900;2023-04-06T07:58:57;11.60;;;2.75;;
66567;SDS011;53422;49.296;6.900;2023-04-06T08:01:23;8.05;;;3.13;;
66567;SDS011;53422;49.296;6.900;2023-04-06T08:03:49;9.55;;;3.45;;
66567;SDS011;53422;49.296;6.900;2023-04-06T08:06:16;7.50;;;3.13;;
66567;SDS011;53422;49.296;6.900;2023-04-06T08:08:42;8.63;;;3.70;;
66567;SDS011;53422;49.296;6.900;2023-04-06T08:11:08;7.57;;;3.25;;
66567;SDS011;53422;49.296;6.900;2023-04-06T08:13:34;10.88;;;3.55;;
66567;SDS011;53422;49.296;6.900;2023-04-06T08:16:00;9.38;;;3.75;;
66567;SDS011;53422;49.296;6.900;2023-04-06T08:18:26;11.30;;;4.53;;
66567;SDS011;53422;49.296;6.900;2023-04-06T08:20:52;8.77;;;3.70;;
66567;SDS011;53422;49.296;6.900;2023-04-06T08:23:19;7.47;;;3.13;;
66567;SDS011;53422;49.296;6.900;2023-04-06T08:25:45;8.38;;;3.20;;
66567;SDS011;53422;49.296;6.900;2023-04-06T08:28:11;7.57;;;3.08;;
66567;SDS011;53422;49.296;6.900;2023-04-06T08:30:39;10.80;;;4.05;;
66567;SDS011;53422;49.296;6.900;2023-04-06T08:33:05;10.75;;;4.40;;
66567;SDS011;53422;49.296;6.900;2023-04-06T08:35:31;9.65;;;4.22;;
66567;SDS011;53422;49.296;6.900;2023-04-06T08:37:57;11.68;;;3.72;;
66567;SDS011;53422;49.296;6.900;2023-04-06T08:40:22;6.63;;;2.88;;
66567;SDS011;53422;49.296;6.900;2023-04-06T08:42:50;9.20;;;3.65;;
66567;SDS011;53422;49.296;6.900;2023-04-06T08:45:19;8.98;;;3.83;;
66567;SDS011;53422;49.296;6.900;2023-04-06T08:47:47;8.38;;;3.35;;
66567;SDS011;53422;49.296;6.900;2023-04-06T08:50:15;8.45;;;3.28;;
66567;SDS011;53422;49.296;6.900;2023-04-06T08:52:43;4.63;;;2.28;;
66567;SDS011;53422;49.296;6.900;2023-04-06T08:55:09;6.45;;;2.92;;
66567;SDS011;53422;49.296;6.900;2023-04-06T08:57:35;9.70;;;3.72;;
66567;SDS011;53422;49.296;6.900;2023-04-06T09:00:02;10.05;;;3.35;;
66567;SDS011;53422;49.296;6.900;2023-04-06T09:02:29;7.35;;;3.30;;
66567;SDS011;53422;49.296;6.900;2023-04-06T09:04:55;7.18;;;2.80;;
66567;SDS011;53422;49.296;6.900;2023-04-06T09:07:22;11.57;;;3.88;;
66567;SDS011;53422;49.296;6.900;2023-04-06T09:09:49;7.72;;;2.97;;
66567;SDS011;53422;49.296;6.900;2023-04-06T09:14:51;7.72;;;4.30;;
66567;SDS011;53422;49.296;6.900;2023-04-06T09:17:24;9.48;;;3.17;;
66567;SDS011;53422;49.296;6.900;2023-04-06T09:19:50;7.47;;;3.00;;
66567;SDS011;53422;49.296;6.900;2023-04-06T09:22:16;7.80;;;3.10;;
66567;SDS011;53422;49.296;6.900;2023-04-06T09:27:09;4.93;;;2.78;;
66567;SDS011;53422;49.296;6.900;2023-04-06T09:29:34;7.05;;;3.17;;
66567;SDS011;53422;49.296;6.900;2023-04-06T09:32:05;7.65;;;3.15;;
66567;SDS011;53422;49.296;6.900;2023-04-06T09:34:32;8.40;;;3.08;;
66567;SDS011;53422;49.296;6.900;2023-04-06T09:36:58;6.90;;;2.80;;
66567;SDS011;53422;49.296;6.900;2023-04-06T09:39:24;11.10;;;3.60;;
66567;SDS011;53422;49.296;6.900;2023-04-06T09:41:51;7.15;;;2.95;;
66567;SDS011;53422;49.296;6.900;2023-04-06T09:44:17;5.85;;;2.42;;
66567;SDS011;53422;49.296;6.900;2023-04-06T09:46:45;7.45;;;3.47;;
66567;SDS011;53422;49.296;6.900;2023-04-06T09:49:11;7.53;;;3.13;;
66567;SDS011;53422;49.296;6.900;2023-04-06T09:51:44;7.15;;;2.72;;
66567;SDS011;53422;49.296;6.900;2023-04-06T09:54:23;6.95;;;3.08;;
66567;SDS011;53422;49.296;6.900;2023-04-06T09:56:56;8.30;;;3.00;;
66567;SDS011;53422;49.296;6.900;2023-04-06T10:02:01;6.20;;;2.55;;
66567;SDS011;53422;49.296;6.900;2023-04-06T10:04:34;6.47;;;2.90;;
66567;SDS011;53422;49.296;6.900;2023-04-06T10:07:02;7.25;;;3.10;;
66567;SDS011;53422;49.296;6.900;2023-04-06T10:09:29;7.60;;;3.33;;
66567;SDS011;53422;49.296;6.900;2023-04-06T10:12:02;5.47;;;2.80;;
66567;SDS011;53422;49.296;6.900;2023-04-06T10:14:30;5.57;;;2.67;;
66567;SDS011;53422;49.296;6.900;2023-04-06T10:17:03;9.10;;;2.97;;
66567;SDS011;53422;49.296;6.900;2023-04-06T10:19:35;6.20;;;3.40;;
66567;SDS011;53422;49.296;6.900;2023-04-06T10:22:12;9.88;;;3.47;;
66567;SDS011;53422;49.296;6.900;2023-04-06T10:24:41;5.55;;;2.45;;
66567;SDS011;53422;49.296;6.900;2023-04-06T10:27:07;7.38;;;2.78;;
66567;SDS011;53422;49.296;6.900;2023-04-06T10:29:45;10.10;;;2.90;;
66567;SDS011;53422;49.296;6.900;2023-04-06T10:32:12;9.07;;;3.22;;
66567;SDS011;53422;49.296;6.900;2023-04-06T10:34:38;7.93;;;2.53;;
66567;SDS011;53422;49.296;6.900;2023-04-06T10:37:10;7.05;;;3.17;;
66567;SDS011;53422;49.296;6.900;2023-04-06T10:39:53;6.07;;;2.42;;
66567;SDS011;53422;49.296;6.900;2023-04-06T10:42:25;7.40;;;2.72;;
66567;SDS011;53422;49.296;6.900;2023-04-06T10:45:04;6.60;;;2.70;;
66567;SDS011;53422;49.296;6.900;2023-04-06T10:47:38;8.40;;;3.30;;
66567;SDS011;53422;49.296;6.900;2023-04-06T10:50:07;8.38;;;3.65;;
66567;SDS011;53422;49.296;6.900;2023-04-06T10:52:33;5.00;;;1.73;;
66567;SDS011;53422;49.296;6.900;2023-04-06T10:54:58;5.78;;;2.65;;
66567;SDS011;53422;49.296;6.900;2023-04-06T10:57:28;5.57;;;2.47;;
66567;SDS011;53422;49.296;6.900;2023-04-06T10:59:54;7.95;;;3.30;;
66567;SDS011;53422;49.296;6.900;2023-04-06T11:02:20;6.85;;;2.53;;
66567;SDS011;53422;49.296;6.900;2023-04-06T11:04:53;8.43;;;2.72;;
66567;SDS011;53422;49.296;6.900;2023-04-06T11:07:24;9.45;;;3.22;;
66567;SDS011;53422;49.296;6.900;2023-04-06T11:09:55;6.68;;;2.47;;
66567;SDS011;53422;49.296;6.900;2023-04-06T11:12:25;8.20;;;2.85;;
66567;SDS011;53422;49.296;6.900;2023-04-06T11:14:58;8.68;;;3.08;;
66567;SDS011;53422;49.296;6.900;2023-04-06T11:17:31;8.52;;;2.55;;
66567;SDS011;53422;49.296;6.900;2023-04-06T11:20:02;7.78;;;3.08;;
66567;SDS011;53422;49.296;6.900;2023-04-06T11:22:31;8.32;;;2.85;;
66567;SDS011;53422;49.296;6.900;2023-04-06T11:25:06;7.97;;;2.95;;
66567;SDS011;53422;49.296;6.900;2023-04-06T11:27:33;8.27;;;2.92;;
66567;SDS011;53422;49.296;6.900;2023-04-06T11:30:00;8.82;;;3.08;;
66567;SDS011;53422;49.296;6.900;2023-04-06T11:32:26;7.03;;;3.20;;
66567;SDS011;53422;49.296;6.900;2023-04-06T11:34:52;6.47;;;2.72;;
66567;SDS011;53422;49.296;6.900;2023-04-06T11:37:18;9.00;;;3.47;;
66567;SDS011;53422;49.296;6.900;2023-04-06T11:42:20;6.40;;;2.60;;
66567;SDS011;53422;49.296;6.900;2023-04-06T11:44:49;5.43;;;2.50;;
66567;SDS011;53422;49.296;6.900;2023-04-06T11:47:16;8.13;;;2.97;;
66567;SDS011;53422;49.296;6.900;2023-04-06T11:49:42;9.00;;;3.25;;
66567;SDS011;53422;49.296;6.900;2023-04-06T11:52:25;6.75;;;2.50;;
66567;SDS011;53422;49.296;6.900;2023-04-06T11:54:53;8.20;;;3.25;;
66567;SDS011;53422;49.296;6.900;2023-04-06T11:57:21;5.25;;;2.83;;
66567;SDS011;53422;49.296;6.900;2023-04-06T11:59:50;7.90;;;3.53;;
66567;SDS011;53422;49.296;6.900;2023-04-06T12:02:17;9.20;;;2.90;;
66567;SDS011;53422;49.296;6.900;2023-04-06T12:04:43;7.18;;;3.03;;
66567;SDS011;53422;49.296;6.900;2023-04-06T12:07:09;7.65;;;3.15;;
66567;SDS011;53422;49.296;6.900;2023-04-06T12:09:35;5.32;;;2.33;;
66567;SDS011;53422;49.296;6.900;2023-04-06T12:12:02;6.82;;;2.60;;
66567;SDS011;53422;49.296;6.900;2023-04-06T12:14:28;9.18;;;3.35;;
66567;SDS011;53422;49.296;6.900;2023-04-06T12:16:55;6.65;;;3.05;;
66567;SDS011;53422;49.296;6.900;2023-04-06T12:19:22;8.70;;;3.38;;
66567;SDS011;53422;49.296;6.900;2023-04-06T12:21:50;7.97;;;3.55;;
66567;SDS011;53422;49.296;6.900;2023-04-06T12:24:19;7.45;;;3.03;;
66567;SDS011;53422;49.296;6.900;2023-04-06T12:26:45;7.15;;;3.17;;
66567;SDS011;53422;49.296;6.900;2023-04-06T12:29:11;8.75;;;2.88;;
66567;SDS011;53422;49.296;6.900;2023-04-06T12:31:38;6.40;;;2.95;;
66567;SDS011;53422;49.296;6.900;2023-04-06T12:34:05;10.55;;;3.47;;
66567;SDS011;53422;49.296;6.900;2023-04-06T12:36:32;8.70;;;3.35;;
66567;SDS011;53422;49.296;6.900;2023-04-06T12:38:58;9.25;;;3.40;;
66567;SDS011;53422;49.296;6.900;2023-04-06T12:41:25;7.88;;;2.97;;
66567;SDS011;53422;49.296;6.900;2023-04-06T12:43:51;8.20;;;2.78;;
66567;SDS011;53422;49.296;6.900;2023-04-06T12:46:17;6.03;;;2.50;;
66567;SDS011;53422;49.296;6.900;2023-04-06T12:48:43;8.75;;;3.40;;
66567;SDS011;53422;49.296;6.900;2023-04-06T12:51:08;8.93;;;3.20;;
66567;SDS011;53422;49.296;6.900;2023-04-06T12:53:34;7.13;;;3.13;;
66567;SDS011;53422;49.296;6.900;2023-04-06T12:56:00;8.52;;;3.20;;
66567;SDS011;53422;49.296;6.900;2023-04-06T12:58:27;8.30;;;2.97;;
66567;SDS011;53422;49.296;6.900;2023-04-06T13:00:54;7.13;;;2.95;;
66567;SDS011;53422;49.296;6.900;2023-04-06T13:03:21;5.82;;;2.70;;
66567;SDS011;53422;49.296;6.900;2023-04-06T13:05:47;6.28;;;3.50;;
66567;SDS011;53422;49.296;6.900;2023-04-06T13:08:15;7.32;;;2.67;;
66567;SDS011;53422;49.296;6.900;2023-04-06T13:13:14;5.85;;;2.63;;
66567;SDS011;53422;49.296;6.900;2023-04-06T13:15:40;6.53;;;2.97;;
66567;SDS011;53422;49.296;6.900;2023-04-06T13:18:06;8.15;;;3.42;;
66567;SDS011;53422;49.296;6.900;2023-04-06T13:20:32;6.07;;;2.70;;
66567;SDS011;53422;49.296;6.900;2023-04-06T13:22:58;9.93;;;3.60;;
66567;SDS011;53422;49.296;6.900;2023-04-06T13:25:24;6.53;;;3.60;;
66567;SDS011;53422;49.296;6.900;2023-04-06T13:27:49;7.65;;;4.05;;
66567;SDS011;53422;49.296;6.900;2023-04-06T13:30:15;6.85;;;3.33;;
66567;SDS011;53422;49.296;6.900;2023-04-06T13:32:41;7.40;;;3.10;;
66567;SDS011;53422;49.296;6.900;2023-04-06T13:35:07;6.45;;;3.33;;
66567;SDS011;53422;49.296;6.900;2023-04-06T13:37:33;6.93;;;3.25;;
66567;SDS011;53422;49.296;6.900;2023-04-06T13:39:59;7.00;;;3.08;;
66567;SDS011;53422;49.296;6.900;2023-04-06T13:42:29;8.40;;;3.33;;
66567;SDS011;53422;49.296;6.900;2023-04-06T13:44:55;8.30;;;3.45;;
66567;SDS011;53422;49.296;6.900;2023-04-06T13:47:21;7.57;;;2.78;;
66567;SDS011;53422;49.296;6.900;2023-04-06T13:49:47;8.90;;;3.75;;
66567;SDS011;53422;49.296;6.900;2023-04-06T13:52:12;8.60;;;3.40;;
66567;SDS011;53422;49.296;6.900;2023-04-06T13:54:38;7.55;;;3.60;;
66567;SDS011;53422;49.296;6.900;2023-04-06T13:57:04;8.70;;;3.22;;
66567;SDS011;53422;49.296;6.900;2023-04-06T13:59:33;6.90;;;3.40;;
66567;SDS011;53422;49.296;6.900;2023-04-06T14:02:02;8.90;;;3.85;;
66567;SDS011;53422;49.296;6.900;2023-04-06T14:04:28;7.82;;;3.38;;
66567;SDS011;53422;49.296;6.900;2023-04-06T14:06:55;8.25;;;3.88;;
66567;SDS011;53422;49.296;6.900;2023-04-06T14:09:21;7.03;;;3.95;;
66567;SDS011;53422;49.296;6.900;2023-04-06T14:11:47;8.32;;;3.72;;
66567;SDS011;53422;49.296;6.900;2023-04-06T14:14:13;7.45;;;3.65;;
66567;SDS011;53422;49.296;6.900;2023-04-06T14:16:40;6.00;;;3.30;;
66567;SDS011;53422;49.296;6.900;2023-04-06T14:19:08;8.90;;;3.45;;
66567;SDS011;53422;49.296;6.900;2023-04-06T14:21:36;6.60;;;3.10;;
66567;SDS011;53422;49.296;6.900;2023-04-06T14:24:08;6.70;;;3.13;;
66567;SDS011;53422;49.296;6.900;2023-04-06T14:26:37;6.15;;;2.90;;
66567;SDS011;53422;49.296;6.900;2023-04-06T14:29:03;7.00;;;3.30;;
66567;SDS011;53422;49.296;6.900;2023-04-06T14:31:30;7.05;;;3.22;;
66567;SDS011;53422;49.296;6.900;2023-04-06T14:33:56;5.30;;;2.50;;
66567;SDS011;53422;49.296;6.900;2023-04-06T14:36:22;7.15;;;2.97;;
66567;SDS011;53422;49.296;6.900;2023-04-06T14:38:47;6.38;;;2.85;;
66567;SDS011;53422;49.296;6.900;2023-04-06T14:41:17;5.90;;;3.08;;
66567;SDS011;53422;49.296;6.900;2023-04-06T14:43:46;8.98;;;3.05;;
66567;SDS011;53422;49.296;6.900;2023-04-06T14:46:12;6.85;;;2.90;;
66567;SDS011;53422;49.296;6.900;2023-04-06T14:48:38;5.20;;;2.60;;
66567;SDS011;53422;49.296;6.900;2023-04-06T14:51:04;6.13;;;3.05;;
66567;SDS011;53422;49.296;6.900;2023-04-06T14:53:30;5.60;;;2.83;;